Time;durP1;ratioP1;P1;durP2;ratioP2;P2;SDS_P1;SDS_P2;PMS_P1;PMS_P2;Temp;Humidity;BMP_temperature;BMP_pressure;BME280_temperature;BME280_humidity;BME280_pressure;Samples;Min_cycle;Max_cycle;Signal;HPM_P1;HPM_P2
2021/06/09 00:01:09;;;;;;;13.85;11.43;;;;;;;;;;5039356;28;20032;-62
2021/06/09 00:03:34;;;;;;;13.32;11.57;;;;;;;;;;5047791;28;20104;-62
2021/06/09 00:06:00;;;;;;;13.18;10.57;;;;;;;;;;5053676;28;20425;-62
2021/06/09 00:08:25;;;;;;;12.57;10.60;;;;;;;;;;5059219;28;20033;-62
2021/06/09 00:10:55;;;;;;;13.98;11.18;;;;;;;;;;5073218;28;20870;-62
2021/06/09 00:13:21;;;;;;;14.20;11.07;;;;;;;;;;5072018;28;20044;-62
2021/06/09 00:15:47;;;;;;;14.15;11.32;;;;;;;;;;5070347;28;20556;-63
2021/06/09 00:18:12;;;;;;;14.95;11.27;;;;;;;;;;5056280;28;20040;-63
2021/06/09 00:20:38;;;;;;;14.50;12.07;;;;;;;;;;5054227;28;20041;-62
2021/06/09 00:23:03;;;;;;;14.23;11.68;;;;;;;;;;5076205;28;20025;-63
2021/06/09 00:25:29;;;;;;;13.00;11.00;;;;;;;;;;5053045;28;20029;-63
2021/06/09 00:27:55;;;;;;;13.43;11.15;;;;;;;;;;5075117;28;20392;-63
2021/06/09 00:30:29;;;;;;;13.20;11.02;;;;;;;;;;5054606;28;20115;-63
2021/06/09 00:32:56;;;;;;;11.57;10.10;;;;;;;;;;5042041;28;20110;-63
2021/06/09 00:35:22;;;;;;;13.48;10.23;;;;;;;;;;5043479;28;20107;-62
2021/06/09 00:37:47;;;;;;;13.02;10.60;;;;;;;;;;5053940;28;20497;-63
2021/06/09 00:40:13;;;;;;;12.52;10.25;;;;;;;;;;5072620;28;25404;-62
2021/06/09 00:42:38;;;;;;;12.43;10.48;;;;;;;;;;5072001;28;20037;-62
2021/06/09 00:45:05;;;;;;;13.55;10.90;;;;;;;;;;5073679;28;20049;-63
2021/06/09 00:47:31;;;;;;;13.38;11.18;;;;;;;;;;5072757;28;20037;-63
2021/06/09 00:49:56;;;;;;;12.32;10.50;;;;;;;;;;5074266;28;20037;-63
2021/06/09 00:52:25;;;;;;;12.82;11.43;;;;;;;;;;5064500;28;20174;-63
2021/06/09 00:54:51;;;;;;;16.75;12.30;;;;;;;;;;5073391;28;20501;-62
2021/06/09 00:57:17;;;;;;;15.23;12.27;;;;;;;;;;5040850;28;20079;-63
2021/06/09 00:59:42;;;;;;;15.68;12.20;;;;;;;;;;5073628;28;20080;-62
2021/06/09 01:02:08;;;;;;;14.95;12.13;;;;;;;;;;5054758;28;20041;-63
2021/06/09 01:04:33;;;;;;;14.10;11.85;;;;;;;;;;5053660;28;20040;-62
2021/06/09 01:07:00;;;;;;;14.32;11.90;;;;;;;;;;5072131;28;20078;-63
2021/06/09 01:09:26;;;;;;;13.90;11.60;;;;;;;;;;5064839;28;20060;-63
2021/06/09 01:11:51;;;;;;;14.77;12.73;;;;;;;;;;5071097;28;20050;-63
2021/06/09 01:14:17;;;;;;;14.98;12.20;;;;;;;;;;5030597;28;20043;-63
2021/06/09 01:16:42;;;;;;;13.57;11.80;;;;;;;;;;5071616;28;20036;-63
2021/06/09 01:19:08;;;;;;;15.05;12.65;;;;;;;;;;5053769;28;20029;-63
2021/06/09 01:21:34;;;;;;;15.13;12.15;;;;;;;;;;5035667;28;20043;-63
2021/06/09 01:24:00;;;;;;;14.30;11.90;;;;;;;;;;5037352;28;20060;-63
2021/06/09 01:26:26;;;;;;;12.77;10.63;;;;;;;;;;5039082;28;20142;-63
2021/06/09 01:28:53;;;;;;;12.80;10.43;;;;;;;;;;5054783;28;20036;-62
2021/06/09 01:31:19;;;;;;;13.55;10.88;;;;;;;;;;5052988;28;20028;-63
2021/06/09 01:33:44;;;;;;;13.57;11.63;;;;;;;;;;5029802;28;20755;-63
2021/06/09 01:36:10;;;;;;;12.90;10.93;;;;;;;;;;5039503;28;20032;-63
2021/06/09 01:38:35;;;;;;;12.95;10.57;;;;;;;;;;5053204;28;20098;-63
2021/06/09 01:41:01;;;;;;;16.33;12.27;;;;;;;;;;5037237;28;20033;-63
2021/06/09 01:43:26;;;;;;;14.45;12.55;;;;;;;;;;5071612;28;20044;-63
2021/06/09 01:45:52;;;;;;;15.10;12.63;;;;;;;;;;5055328;28;20041;-63
2021/06/09 01:48:18;;;;;;;13.90;11.18;;;;;;;;;;5054271;28;20178;-63
2021/06/09 01:50:43;;;;;;;14.23;11.43;;;;;;;;;;5071785;28;20493;-63
2021/06/09 01:53:09;;;;;;;14.18;12.25;;;;;;;;;;5053444;28;20052;-63
2021/06/09 01:55:35;;;;;;;14.10;11.45;;;;;;;;;;5042851;28;20044;-63
2021/06/09 01:58:01;;;;;;;12.90;10.82;;;;;;;;;;5039329;28;20580;-63
2021/06/09 02:00:29;;;;;;;13.48;11.18;;;;;;;;;;5054294;28;20078;-63
2021/06/09 02:02:59;;;;;;;12.50;10.00;;;;;;;;;;5053866;28;20108;-63
2021/06/09 02:05:28;;;;;;;14.65;11.48;;;;;;;;;;5054229;28;20036;-63
2021/06/09 02:07:55;;;;;;;12.48;10.25;;;;;;;;;;5054859;28;20577;-63
2021/06/09 02:10:21;;;;;;;11.95;10.13;;;;;;;;;;5053971;28;20032;-63
2021/06/09 02:12:50;;;;;;;11.57;10.07;;;;;;;;;;5072718;28;20051;-63
2021/06/09 02:15:18;;;;;;;11.73;9.85;;;;;;;;;;5054784;28;20358;-62
2021/06/09 02:17:57;;;;;;;10.93;9.07;;;;;;;;;;5072919;28;20080;-63
2021/06/09 02:20:24;;;;;;;12.10;9.68;;;;;;;;;;5053845;28;20041;-63
2021/06/09 02:22:50;;;;;;;10.30;8.45;;;;;;;;;;5069243;28;20021;-63
2021/06/09 02:25:17;;;;;;;11.95;9.52;;;;;;;;;;5053429;28;20320;-63
2021/06/09 02:27:43;;;;;;;12.07;9.88;;;;;;;;;;5040292;28;20025;-63
2021/06/09 02:30:09;;;;;;;12.30;10.00;;;;;;;;;;5072404;28;20474;-63
2021/06/09 02:32:35;;;;;;;12.27;8.73;;;;;;;;;;5056798;28;20397;-62
2021/06/09 02:35:00;;;;;;;9.88;8.18;;;;;;;;;;5036655;28;20076;-63
2021/06/09 02:37:26;;;;;;;11.50;9.63;;;;;;;;;;5056913;28;26290;-63
2021/06/09 02:39:51;;;;;;;10.10;8.00;;;;;;;;;;5039349;28;20039;-63
2021/06/09 02:42:18;;;;;;;9.77;7.57;;;;;;;;;;5073217;28;20475;-63
2021/06/09 02:44:43;;;;;;;10.55;8.10;;;;;;;;;;5053581;28;20037;-63
2021/06/09 02:47:09;;;;;;;10.38;7.93;;;;;;;;;;5070240;28;20064;-63
2021/06/09 02:49:34;;;;;;;8.90;7.03;;;;;;;;;;5052854;28;23791;-63
2021/06/09 02:52:07;;;;;;;9.50;7.60;;;;;;;;;;5032121;28;20036;-63
2021/06/09 02:54:37;;;;;;;9.23;7.40;;;;;;;;;;5056430;28;20040;-63
2021/06/09 02:57:11;;;;;;;9.73;7.57;;;;;;;;;;5053251;28;20044;-62
2021/06/09 02:59:57;;;;;;;9.57;7.35;;;;;;;;;;5052263;28;20041;-63
2021/06/09 03:02:34;;;;;;;9.43;7.30;;;;;;;;;;5039842;28;20036;-63
2021/06/09 03:05:30;;;;;;;8.88;7.35;;;;;;;;;;5052745;28;20053;-63
2021/06/09 03:08:13;;;;;;;8.23;6.70;;;;;;;;;;5071153;28;20565;-63
2021/06/09 03:10:41;;;;;;;7.65;5.85;;;;;;;;;;5042153;28;20483;-63
2021/06/09 03:13:11;;;;;;;7.50;5.25;;;;;;;;;;5071907;28;20020;-63
2021/06/09 03:15:42;;;;;;;7.32;5.72;;;;;;;;;;5052502;28;20024;-63
2021/06/09 03:18:22;;;;;;;6.70;4.78;;;;;;;;;;5053995;28;20079;-63
2021/06/09 03:21:09;;;;;;;6.35;5.07;;;;;;;;;;5053759;28;20047;-62
2021/06/09 03:23:44;;;;;;;6.97;5.15;;;;;;;;;;5051384;28;20508;-62
2021/06/09 03:26:17;;;;;;;7.57;5.72;;;;;;;;;;5071093;28;20036;-63
2021/06/09 03:29:15;;;;;;;6.57;5.05;;;;;;;;;;5054931;28;20040;-63
2021/06/09 03:31:49;;;;;;;6.72;5.00;;;;;;;;;;5054916;28;20154;-63
2021/06/09 03:34:18;;;;;;;5.85;4.45;;;;;;;;;;5037867;28;20037;-63
2021/06/09 03:36:43;;;;;;;6.00;4.75;;;;;;;;;;5033074;28;20037;-62
2021/06/09 03:39:10;;;;;;;8.05;5.55;;;;;;;;;;5035393;28;20489;-62
2021/06/09 03:41:43;;;;;;;8.70;5.75;;;;;;;;;;5070192;28;20037;-63
2021/06/09 03:44:09;;;;;;;7.28;5.60;;;;;;;;;;5056234;28;20114;-63
2021/06/09 03:46:36;;;;;;;7.97;5.63;;;;;;;;;;5069930;28;20032;-63
2021/06/09 03:49:01;;;;;;;8.32;5.60;;;;;;;;;;5037135;28;20040;-62
2021/06/09 03:51:29;;;;;;;6.28;5.03;;;;;;;;;;5044716;28;20086;-63
2021/06/09 03:53:56;;;;;;;6.20;4.20;;;;;;;;;;5069457;28;21055;-63
2021/06/09 03:56:22;;;;;;;4.18;3.40;;;;;;;;;;5035413;28;20541;-62
2021/06/09 03:58:48;;;;;;;5.22;3.13;;;;;;;;;;5050884;28;20041;-62
2021/06/09 04:01:13;;;;;;;3.10;2.70;;;;;;;;;;5034969;28;20032;-62
2021/06/09 04:03:40;;;;;;;3.00;2.70;;;;;;;;;;5052889;28;20064;-63
2021/06/09 04:06:06;;;;;;;4.03;3.10;;;;;;;;;;5038257;28;20064;-63
2021/06/09 04:08:31;;;;;;;3.35;3.05;;;;;;;;;;5050881;28;20025;-63
2021/06/09 04:10:57;;;;;;;3.33;3.00;;;;;;;;;;5034244;28;24414;-63
2021/06/09 04:13:22;;;;;;;3.42;3.00;;;;;;;;;;5050356;28;20767;-62
2021/06/09 04:15:49;;;;;;;4.10;3.35;;;;;;;;;;5034710;28;20037;-63
2021/06/09 04:18:15;;;;;;;5.45;4.25;;;;;;;;;;5035122;28;20067;-62
2021/06/09 04:20:40;;;;;;;6.10;4.70;;;;;;;;;;5034551;28;20056;-62
2021/06/09 04:23:06;;;;;;;5.85;4.38;;;;;;;;;;5027702;28;20070;-62
2021/06/09 04:25:31;;;;;;;4.30;3.80;;;;;;;;;;5049877;28;20033;-62
2021/06/09 04:27:57;;;;;;;4.70;3.97;;;;;;;;;;5034754;28;20033;-62
2021/06/09 04:30:23;;;;;;;4.88;4.00;;;;;;;;;;5034376;28;20033;-62
2021/06/09 04:32:56;;;;;;;5.07;4.03;;;;;;;;;;5069846;28;20511;-62
2021/06/09 04:35:26;;;;;;;5.13;4.20;;;;;;;;;;5073330;28;20064;-62
2021/06/09 04:37:52;;;;;;;5.07;4.22;;;;;;;;;;5073120;28;20106;-63
2021/06/09 04:40:26;;;;;;;6.55;5.00;;;;;;;;;;5039918;28;22071;-62
2021/06/09 04:42:52;;;;;;;7.35;5.85;;;;;;;;;;5072582;28;20032;-62
2021/06/09 04:45:18;;;;;;;7.43;5.82;;;;;;;;;;5073697;28;20610;-62
2021/06/09 04:47:44;;;;;;;8.95;6.90;;;;;;;;;;5072862;28;20040;-62
2021/06/09 04:50:10;;;;;;;8.27;6.60;;;;;;;;;;5072593;28;20033;-62
2021/06/09 04:52:36;;;;;;;9.00;6.95;;;;;;;;;;5072189;28;20032;-62
2021/06/09 04:55:01;;;;;;;8.63;7.15;;;;;;;;;;5053514;28;20140;-62
2021/06/09 04:57:27;;;;;;;11.25;7.60;;;;;;;;;;5071676;28;20047;-62
2021/06/09 04:59:52;;;;;;;9.75;8.00;;;;;;;;;;5072045;28;20560;-62
2021/06/09 05:02:18;;;;;;;10.55;8.73;;;;;;;;;;5073845;28;20033;-63
2021/06/09 05:04:44;;;;;;;10.77;8.63;;;;;;;;;;5053766;28;20039;-62
2021/06/09 05:07:09;;;;;;;9.85;8.52;;;;;;;;;;5054602;28;20387;-62
2021/06/09 05:09:35;;;;;;;9.65;7.32;;;;;;;;;;5072202;28;20516;-63
2021/06/09 05:12:06;;;;;;;8.55;7.20;;;;;;;;;;5039795;28;20116;-63
2021/06/09 05:15:02;;;;;;;9.65;8.07;;;;;;;;;;5030951;28;20131;-62
2021/06/09 05:17:29;;;;;;;9.85;7.57;;;;;;;;;;5042690;28;20053;-62
2021/06/09 05:19:57;;;;;;;9.95;8.23;;;;;;;;;;5046464;28;20421;-63
2021/06/09 05:22:25;;;;;;;11.07;9.02;;;;;;;;;;5055141;28;20032;-63
2021/06/09 05:24:50;;;;;;;10.48;8.68;;;;;;;;;;5036529;28;20035;-63
2021/06/09 05:27:18;;;;;;;12.27;10.10;;;;;;;;;;5052763;28;20064;-63
2021/06/09 05:29:43;;;;;;;10.73;8.55;;;;;;;;;;5063482;28;20039;-62
2021/06/09 05:32:08;;;;;;;11.00;9.52;;;;;;;;;;5036288;28;20044;-62
2021/06/09 05:34:35;;;;;;;12.65;9.63;;;;;;;;;;5054020;28;20370;-62
2021/06/09 05:37:01;;;;;;;11.77;9.75;;;;;;;;;;5037623;28;20040;-62
2021/06/09 05:39:27;;;;;;;11.80;9.70;;;;;;;;;;5054402;28;20041;-62
2021/06/09 05:41:52;;;;;;;12.50;10.00;;;;;;;;;;5045965;28;20041;-62
2021/06/09 05:44:18;;;;;;;12.23;10.40;;;;;;;;;;5073157;28;20035;-62
2021/06/09 05:46:44;;;;;;;13.80;11.20;;;;;;;;;;5072162;28;20037;-62
2021/06/09 05:49:20;;;;;;;12.50;10.68;;;;;;;;;;5072968;28;20035;-62
2021/06/09 05:51:45;;;;;;;13.90;11.02;;;;;;;;;;5069936;28;20037;-62
2021/06/09 05:54:11;;;;;;;14.57;12.30;;;;;;;;;;5052725;28;20041;-61
2021/06/09 05:56:36;;;;;;;16.60;12.27;;;;;;;;;;5063482;28;20563;-62
2021/06/09 05:59:02;;;;;;;14.27;12.07;;;;;;;;;;5057136;28;20025;-62
2021/06/09 06:01:28;;;;;;;15.38;12.18;;;;;;;;;;5069887;28;20094;-62
2021/06/09 06:03:53;;;;;;;13.35;11.70;;;;;;;;;;5022448;28;20144;-62
2021/06/09 06:06:19;;;;;;;14.02;11.60;;;;;;;;;;5038766;28;20125;-62
2021/06/09 06:08:44;;;;;;;14.15;11.77;;;;;;;;;;5036923;28;20035;-62
2021/06/09 06:11:14;;;;;;;14.38;12.40;;;;;;;;;;5073027;28;20354;-62
2021/06/09 06:13:41;;;;;;;16.52;12.68;;;;;;;;;;5072524;28;20060;-61
2021/06/09 06:16:07;;;;;;;15.20;12.32;;;;;;;;;;5073522;28;20033;-61
2021/06/09 06:18:39;;;;;;;15.60;12.90;;;;;;;;;;5052369;28;20374;-61
2021/06/09 06:21:06;;;;;;;14.02;12.50;;;;;;;;;;5053511;28;20039;-61
2021/06/09 06:23:31;;;;;;;15.57;12.68;;;;;;;;;;5063159;28;20040;-62
2021/06/09 06:25:57;;;;;;;14.90;12.77;;;;;;;;;;5035807;28;20044;-61
2021/06/09 06:28:23;;;;;;;15.63;13.45;;;;;;;;;;5071840;28;20032;-61
2021/06/09 06:30:49;;;;;;;13.23;10.52;;;;;;;;;;5070228;28;20476;-61
2021/06/09 06:33:15;;;;;;;17.30;13.43;;;;;;;;;;5054067;28;20059;-61
2021/06/09 06:35:41;;;;;;;15.13;12.18;;;;;;;;;;5028629;28;20043;-61
2021/06/09 06:38:06;;;;;;;17.13;14.10;;;;;;;;;;5036798;28;20029;-61
2021/06/09 06:40:33;;;;;;;16.92;14.35;;;;;;;;;;5036323;28;20040;-61
2021/06/09 06:42:58;;;;;;;12.40;10.40;;;;;;;;;;5072245;28;20040;-62
2021/06/09 06:45:24;;;;;;;15.57;12.48;;;;;;;;;;5070983;28;20032;-61
2021/06/09 06:47:52;;;;;;;17.77;14.98;;;;;;;;;;5071286;28;20098;-61
2021/06/09 06:50:19;;;;;;;13.15;10.30;;;;;;;;;;5070274;28;20548;-62
2021/06/09 06:52:44;;;;;;;18.30;15.98;;;;;;;;;;5071102;28;20091;-62
2021/06/09 06:55:11;;;;;;;16.45;13.32;;;;;;;;;;5040304;28;20810;-62
2021/06/09 06:57:36;;;;;;;17.58;14.63;;;;;;;;;;5070948;28;20073;-63
2021/06/09 07:00:08;;;;;;;18.27;15.25;;;;;;;;;;5062106;28;20071;-61
2021/06/09 07:02:34;;;;;;;18.35;15.10;;;;;;;;;;5070307;28;20032;-61
2021/06/09 07:04:59;;;;;;;18.17;14.98;;;;;;;;;;5034419;28;20495;-61
2021/06/09 07:07:25;;;;;;;19.10;15.23;;;;;;;;;;5052363;28;20087;-60
2021/06/09 07:09:51;;;;;;;17.10;15.15;;;;;;;;;;5035807;28;20036;-61
2021/06/09 07:12:16;;;;;;;16.13;13.20;;;;;;;;;;5037179;28;20048;-61
2021/06/09 07:14:42;;;;;;;18.67;15.20;;;;;;;;;;5036483;28;20034;-61
2021/06/09 07:17:09;;;;;;;17.40;14.73;;;;;;;;;;5057388;28;20048;-61
2021/06/09 07:19:35;;;;;;;17.08;14.68;;;;;;;;;;5052188;28;20231;-61
2021/06/09 07:22:01;;;;;;;17.02;14.35;;;;;;;;;;5035999;28;20626;-61
2021/06/09 07:24:26;;;;;;;17.17;14.48;;;;;;;;;;5052134;28;20045;-61
2021/06/09 07:26:53;;;;;;;18.13;14.90;;;;;;;;;;5051896;28;20029;-61
2021/06/09 07:29:24;;;;;;;18.27;15.23;;;;;;;;;;5050817;28;20069;-61
2021/06/09 07:31:49;;;;;;;18.65;14.90;;;;;;;;;;5051581;28;20044;-61
2021/06/09 07:34:15;;;;;;;17.35;14.60;;;;;;;;;;5071351;28;20044;-61
2021/06/09 07:36:43;;;;;;;17.38;14.32;;;;;;;;;;5051317;28;20103;-61
2021/06/09 07:39:11;;;;;;;19.17;14.98;;;;;;;;;;5051147;28;20040;-60
2021/06/09 07:41:39;;;;;;;18.77;14.68;;;;;;;;;;5053356;28;20032;-61
2021/06/09 07:44:05;;;;;;;17.70;14.25;;;;;;;;;;5047631;28;20056;-61
2021/06/09 07:46:31;;;;;;;17.63;13.90;;;;;;;;;;5046051;28;21112;-62
2021/06/09 07:48:57;;;;;;;16.67;13.98;;;;;;;;;;5051898;28;20036;-62
2021/06/09 07:51:23;;;;;;;17.13;13.85;;;;;;;;;;5034586;28;20041;-62
2021/06/09 07:53:48;;;;;;;16.42;13.82;;;;;;;;;;5034621;28;20036;-61
2021/06/09 07:56:16;;;;;;;16.80;13.35;;;;;;;;;;5033667;28;20393;-61
2021/06/09 07:58:41;;;;;;;16.25;13.75;;;;;;;;;;5050811;28;20036;-62
2021/06/09 08:01:07;;;;;;;16.55;14.13;;;;;;;;;;5051034;28;20512;-62
2021/06/09 08:03:33;;;;;;;17.30;14.02;;;;;;;;;;5035908;28;20032;-61
2021/06/09 08:06:01;;;;;;;14.63;11.93;;;;;;;;;;5019602;28;20507;-61
2021/06/09 08:08:26;;;;;;;15.07;12.52;;;;;;;;;;5070141;28;20028;-61
2021/06/09 08:10:52;;;;;;;13.48;11.50;;;;;;;;;;5028461;28;20490;-61
2021/06/09 08:13:17;;;;;;;14.00;11.55;;;;;;;;;;5064174;28;20033;-61
2021/06/09 08:15:43;;;;;;;14.95;11.13;;;;;;;;;;5038574;28;20079;-61
2021/06/09 08:18:09;;;;;;;11.82;9.55;;;;;;;;;;5071088;28;20037;-61
2021/06/09 08:20:35;;;;;;;13.50;10.48;;;;;;;;;;5034583;28;20037;-61
2021/06/09 08:23:01;;;;;;;12.40;9.88;;;;;;;;;;5071046;28;20041;-60
2021/06/09 08:25:26;;;;;;;11.88;9.73;;;;;;;;;;5024780;28;20830;-61
2021/06/09 08:27:52;;;;;;;12.63;10.38;;;;;;;;;;5074003;28;20033;-61
2021/06/09 08:30:18;;;;;;;12.93;10.60;;;;;;;;;;5072388;28;20045;-61
2021/06/09 08:32:44;;;;;;;12.45;10.27;;;;;;;;;;5016608;28;21242;-60
2021/06/09 08:35:09;;;;;;;11.55;9.20;;;;;;;;;;5053646;28;20033;-61
2021/06/09 08:37:35;;;;;;;12.13;8.57;;;;;;;;;;5054511;28;20048;-61
2021/06/09 08:40:01;;;;;;;12.43;10.35;;;;;;;;;;5057797;28;20404;-61
2021/06/09 08:42:27;;;;;;;13.27;10.30;;;;;;;;;;5073253;28;20041;-61
2021/06/09 08:44:52;;;;;;;12.02;9.60;;;;;;;;;;5072969;28;20044;-61
2021/06/09 08:47:18;;;;;;;12.48;10.57;;;;;;;;;;5053879;28;20033;-61
2021/06/09 08:49:47;;;;;;;11.88;9.63;;;;;;;;;;5055228;28;20033;-61
2021/06/09 08:52:13;;;;;;;11.93;9.73;;;;;;;;;;5054349;28;20048;-61
2021/06/09 08:54:42;;;;;;;12.70;9.98;;;;;;;;;;5056684;28;20539;-60
2021/06/09 08:57:08;;;;;;;12.35;10.27;;;;;;;;;;5072068;28;20914;-60
2021/06/09 08:59:33;;;;;;;11.32;9.00;;;;;;;;;;5073677;28;20082;-60
2021/06/09 09:01:59;;;;;;;11.90;9.73;;;;;;;;;;5054957;28;20086;-60
2021/06/09 09:04:26;;;;;;;11.05;8.82;;;;;;;;;;5055092;28;20032;-60
2021/06/09 09:06:52;;;;;;;10.48;8.23;;;;;;;;;;5035631;28;20040;-60
2021/06/09 09:09:17;;;;;;;12.77;9.13;;;;;;;;;;5052111;28;20492;-61
2021/06/09 09:11:42;;;;;;;9.35;7.38;;;;;;;;;;5054574;28;20029;-61
2021/06/09 09:14:08;;;;;;;11.18;8.27;;;;;;;;;;5071508;28;20477;-61
2021/06/09 09:16:33;;;;;;;9.23;6.85;;;;;;;;;;5053206;28;20308;-61
2021/06/09 09:19:02;;;;;;;10.07;7.90;;;;;;;;;;5055810;28;20044;-61
2021/06/09 09:21:40;;;;;;;10.57;8.32;;;;;;;;;;5052918;28;20048;-61
2021/06/09 09:24:09;;;;;;;11.52;9.48;;;;;;;;;;5072218;28;20524;-61
2021/06/09 09:26:35;;;;;;;10.68;8.45;;;;;;;;;;5059073;28;20520;-60
2021/06/09 09:29:15;;;;;;;11.73;9.70;;;;;;;;;;5062892;28;20117;-61
2021/06/09 09:31:56;;;;;;;12.20;9.50;;;;;;;;;;5048315;28;20609;-61
2021/06/09 09:34:31;;;;;;;11.82;9.95;;;;;;;;;;5056809;28;20119;-60
2021/06/09 09:37:08;;;;;;;12.50;10.30;;;;;;;;;;5071658;28;20616;-61
2021/06/09 09:39:35;;;;;;;13.88;11.05;;;;;;;;;;5036598;28;20064;-61
2021/06/09 09:42:20;;;;;;;11.45;9.57;;;;;;;;;;5070861;28;20033;-61
2021/06/09 09:44:47;;;;;;;11.77;9.35;;;;;;;;;;5072201;28;20122;-61
2021/06/09 09:47:21;;;;;;;12.63;10.73;;;;;;;;;;5070649;28;20032;-60
2021/06/09 09:49:48;;;;;;;13.40;10.35;;;;;;;;;;5072083;28;20048;-61
2021/06/09 09:52:14;;;;;;;13.40;11.02;;;;;;;;;;5070426;28;20083;-61
2021/06/09 09:54:43;;;;;;;14.50;11.80;;;;;;;;;;5052036;28;20448;-60
2021/06/09 09:57:11;;;;;;;12.27;10.07;;;;;;;;;;5071957;28;20037;-60
2021/06/09 09:59:36;;;;;;;13.43;11.02;;;;;;;;;;5071782;28;20043;-60
2021/06/09 10:02:04;;;;;;;12.52;9.82;;;;;;;;;;5054286;28;20078;-60
2021/06/09 10:04:34;;;;;;;12.55;9.80;;;;;;;;;;5069767;28;20068;-60
2021/06/09 10:07:01;;;;;;;11.45;9.07;;;;;;;;;;5040227;28;20115;-61
2021/06/09 10:09:38;;;;;;;12.32;9.73;;;;;;;;;;5063893;28;20041;-61
2021/06/09 10:12:08;;;;;;;10.95;8.90;;;;;;;;;;5071498;28;20037;-61
2021/06/09 10:14:37;;;;;;;10.77;8.77;;;;;;;;;;5045826;28;20173;-60
2021/06/09 10:17:07;;;;;;;10.80;8.90;;;;;;;;;;5070677;28;20083;-61
2021/06/09 10:19:35;;;;;;;10.55;8.82;;;;;;;;;;5055799;28;20072;-60
2021/06/09 10:22:10;;;;;;;11.27;8.63;;;;;;;;;;5053680;28;20075;-61
2021/06/09 10:24:51;;;;;;;10.27;8.48;;;;;;;;;;5071042;28;20037;-61
2021/06/09 10:27:18;;;;;;;12.23;9.07;;;;;;;;;;5047314;28;20036;-61
2021/06/09 10:29:44;;;;;;;9.68;7.72;;;;;;;;;;5071337;28;20118;-61
2021/06/09 10:32:11;;;;;;;9.68;7.70;;;;;;;;;;5070446;28;20082;-61
2021/06/09 10:34:37;;;;;;;9.45;7.18;;;;;;;;;;5051828;28;20037;-61
2021/06/09 10:37:04;;;;;;;10.05;7.35;;;;;;;;;;5071631;28;20524;-61
2021/06/09 10:39:32;;;;;;;8.57;6.45;;;;;;;;;;5037322;28;20098;-61
2021/06/09 10:42:00;;;;;;;8.60;6.97;;;;;;;;;;5051933;28;20412;-61
2021/06/09 10:44:31;;;;;;;9.55;6.70;;;;;;;;;;5071604;28;20033;-61
2021/06/09 10:46:58;;;;;;;7.88;6.18;;;;;;;;;;5071551;28;20112;-60
2021/06/09 10:49:23;;;;;;;9.00;6.53;;;;;;;;;;5055565;28;20037;-61
2021/06/09 10:51:51;;;;;;;7.72;6.22;;;;;;;;;;5052540;28;20152;-61
2021/06/09 10:54:16;;;;;;;9.18;7.28;;;;;;;;;;5071616;28;20514;-61
2021/06/09 10:56:46;;;;;;;9.18;7.20;;;;;;;;;;5050306;28;20047;-61
2021/06/09 10:59:16;;;;;;;8.68;7.05;;;;;;;;;;5053556;28;21180;-61
2021/06/09 11:01:43;;;;;;;8.98;6.60;;;;;;;;;;5070344;28;20119;-61
2021/06/09 11:04:09;;;;;;;8.75;6.85;;;;;;;;;;5069569;28;20044;-61
2021/06/09 11:06:48;;;;;;;11.05;7.82;;;;;;;;;;5054994;28;20310;-61
2021/06/09 11:09:16;;;;;;;8.00;6.38;;;;;;;;;;5069695;28;20084;-61
2021/06/09 11:11:42;;;;;;;7.65;6.55;;;;;;;;;;5070766;28;20155;-61
2021/06/09 11:14:21;;;;;;;9.65;6.97;;;;;;;;;;5035613;28;20059;-61
2021/06/09 11:16:48;;;;;;;8.48;6.75;;;;;;;;;;5061813;28;20037;-60
2021/06/09 11:19:30;;;;;;;8.32;6.40;;;;;;;;;;5071816;28;20063;-61
2021/06/09 11:22:04;;;;;;;7.43;6.15;;;;;;;;;;5071710;28;20029;-61
2021/06/09 11:24:29;;;;;;;8.45;6.60;;;;;;;;;;5036629;28;20037;-61
2021/06/09 11:26:55;;;;;;;7.47;5.70;;;;;;;;;;5069985;28;21017;-61
2021/06/09 11:29:27;;;;;;;6.78;5.13;;;;;;;;;;5053308;28;20183;-61
2021/06/09 11:32:14;;;;;;;7.25;5.13;;;;;;;;;;5070599;28;20072;-61
2021/06/09 11:34:59;;;;;;;6.40;5.35;;;;;;;;;;5054490;28;20066;-61
2021/06/09 11:37:25;;;;;;;6.95;5.15;;;;;;;;;;5053002;28;21005;-60
2021/06/09 11:40:01;;;;;;;8.82;5.50;;;;;;;;;;5045566;28;20044;-61
2021/06/09 11:42:26;;;;;;;7.82;5.85;;;;;;;;;;5054405;28;21228;-61
2021/06/09 11:44:52;;;;;;;7.30;5.80;;;;;;;;;;5074151;28;20041;-61
2021/06/09 11:47:27;;;;;;;8.30;6.25;;;;;;;;;;5056095;28;20496;-61
2021/06/09 11:49:54;;;;;;;6.95;5.43;;;;;;;;;;5073322;28;20198;-60
2021/06/09 11:52:20;;;;;;;7.03;5.28;;;;;;;;;;5075669;28;20049;-61
2021/06/09 11:54:46;;;;;;;6.78;5.05;;;;;;;;;;5059205;28;20040;-60
2021/06/09 11:57:13;;;;;;;6.70;5.28;;;;;;;;;;5072733;28;20588;-60
2021/06/09 11:59:41;;;;;;;6.07;4.85;;;;;;;;;;5071801;28;20584;-60
2021/06/09 12:02:09;;;;;;;6.95;5.25;;;;;;;;;;5065732;28;20028;-61
2021/06/09 12:04:40;;;;;;;6.45;4.85;;;;;;;;;;5040560;28;20040;-61
2021/06/09 12:07:07;;;;;;;6.50;5.15;;;;;;;;;;5058680;28;20520;-61
2021/06/09 12:09:37;;;;;;;6.20;4.90;;;;;;;;;;5074635;28;20039;-60
2021/06/09 12:12:05;;;;;;;6.10;4.68;;;;;;;;;;5057074;28;20072;-61
2021/06/09 12:14:35;;;;;;;6.03;4.85;;;;;;;;;;5050648;28;20029;-60
2021/06/09 12:17:15;;;;;;;6.55;4.93;;;;;;;;;;5048448;28;20063;-61
2021/06/09 12:19:48;;;;;;;6.35;5.07;;;;;;;;;;5074595;28;20127;-60
2021/06/09 12:22:22;;;;;;;6.30;5.05;;;;;;;;;;5053791;28;20028;-60
2021/06/09 12:24:58;;;;;;;6.13;5.00;;;;;;;;;;5054454;28;20520;-60
2021/06/09 12:27:23;;;;;;;7.25;5.45;;;;;;;;;;5073470;28;20032;-60
2021/06/09 12:29:49;;;;;;;6.95;5.38;;;;;;;;;;5046211;28;20037;-60
2021/06/09 12:32:26;;;;;;;7.53;5.45;;;;;;;;;;5064373;28;20035;-60
2021/06/09 12:34:54;;;;;;;6.90;5.38;;;;;;;;;;5072172;28;20029;-60
2021/06/09 12:37:19;;;;;;;7.18;5.35;;;;;;;;;;5056961;28;20049;-60
2021/06/09 12:39:51;;;;;;;6.68;5.00;;;;;;;;;;5073075;28;20037;-60
2021/06/09 12:42:17;;;;;;;6.15;5.15;;;;;;;;;;5039917;28;20045;-60
2021/06/09 12:44:48;;;;;;;6.60;5.32;;;;;;;;;;5057426;28;21061;-60
2021/06/09 12:47:23;;;;;;;6.00;4.80;;;;;;;;;;5073241;28;20033;-60
2021/06/09 12:49:49;;;;;;;7.18;5.75;;;;;;;;;;5058344;28;20252;-60
2021/06/09 12:52:14;;;;;;;5.97;5.03;;;;;;;;;;5047666;28;20045;-60
2021/06/09 12:54:51;;;;;;;6.20;4.70;;;;;;;;;;5041103;28;20025;-60
2021/06/09 12:57:26;;;;;;;6.88;5.00;;;;;;;;;;5073334;28;20917;-60
2021/06/09 12:59:52;;;;;;;5.68;4.60;;;;;;;;;;5072529;28;20067;-60
2021/06/09 13:02:17;;;;;;;6.88;4.78;;;;;;;;;;5023322;28;20052;-60
2021/06/09 13:04:43;;;;;;;6.50;4.82;;;;;;;;;;5056053;28;20081;-60
2021/06/09 13:07:09;;;;;;;4.78;3.88;;;;;;;;;;5074364;28;20440;-60
2021/06/09 13:09:35;;;;;;;5.05;4.35;;;;;;;;;;5073027;28;20040;-59
2021/06/09 13:12:02;;;;;;;5.53;4.30;;;;;;;;;;5073771;28;20044;-60
2021/06/09 13:14:32;;;;;;;4.88;3.95;;;;;;;;;;5073716;28;20477;-60
2021/06/09 13:17:02;;;;;;;6.28;4.22;;;;;;;;;;5072535;28;20155;-60
2021/06/09 13:19:27;;;;;;;6.20;4.82;;;;;;;;;;5072581;28;20033;-59
2021/06/09 13:21:53;;;;;;;5.80;4.80;;;;;;;;;;5072654;28;20032;-60
2021/06/09 13:24:34;;;;;;;7.15;5.60;;;;;;;;;;5072011;28;20033;-60
2021/06/09 13:27:16;;;;;;;;;;;;;;;;;;5054860;28;20079;-60
2021/06/09 13:29:46;;;;;;;8.30;5.80;;;;;;;;;;5073548;28;20816;-60
2021/06/09 13:32:20;;;;;;;6.65;5.03;;;;;;;;;;5072941;28;20048;-60
2021/06/09 13:34:49;;;;;;;5.85;5.15;;;;;;;;;;5057599;28;20059;-59
2021/06/09 13:37:17;;;;;;;5.82;4.90;;;;;;;;;;5072331;28;20043;-59
2021/06/09 13:39:47;;;;;;;6.70;5.07;;;;;;;;;;5064415;28;20037;-60
2021/06/09 13:42:14;;;;;;;6.53;5.30;;;;;;;;;;5072185;28;20070;-60
2021/06/09 13:44:41;;;;;;;8.38;6.18;;;;;;;;;;5072045;28;20036;-60
2021/06/09 13:47:07;;;;;;;8.95;6.43;;;;;;;;;;5039828;28;20039;-59
2021/06/09 13:49:37;;;;;;;7.85;6.50;;;;;;;;;;5070973;28;20102;-60
2021/06/09 13:52:06;;;;;;;8.00;6.10;;;;;;;;;;5059343;28;20059;-60
2021/06/09 13:54:36;;;;;;;7.65;6.25;;;;;;;;;;5073802;28;20025;-60
2021/06/09 13:57:14;;;;;;;8.60;6.80;;;;;;;;;;5070756;28;20059;-60
2021/06/09 13:59:50;;;;;;;8.38;6.45;;;;;;;;;;5071487;28;20571;-59
2021/06/09 14:02:27;;;;;;;7.75;5.95;;;;;;;;;;5057987;28;20024;-60
2021/06/09 14:04:53;;;;;;;8.65;6.50;;;;;;;;;;5056466;28;20033;-60
2021/06/09 14:07:20;;;;;;;7.75;6.47;;;;;;;;;;5036478;28;20504;-60
2021/06/09 14:09:59;;;;;;;7.57;6.18;;;;;;;;;;5054869;28;20137;-60
2021/06/09 14:12:25;;;;;;;8.48;5.88;;;;;;;;;;5056559;28;20481;-60
2021/06/09 14:14:50;;;;;;;7.78;6.07;;;;;;;;;;5071202;28;20017;-60
2021/06/09 14:17:18;;;;;;;7.15;5.65;;;;;;;;;;5071882;28;20504;-60
2021/06/09 14:19:57;;;;;;;7.00;5.63;;;;;;;;;;5037941;28;20041;-60
2021/06/09 14:22:27;;;;;;;7.63;5.90;;;;;;;;;;5053302;28;20562;-60
2021/06/09 14:24:53;;;;;;;7.50;5.93;;;;;;;;;;5052710;28;20055;-60
2021/06/09 14:27:19;;;;;;;7.28;5.88;;;;;;;;;;5062514;28;20033;-60
2021/06/09 14:30:07;;;;;;;7.43;6.18;;;;;;;;;;5070707;28;20401;-60
2021/06/09 14:32:36;;;;;;;7.43;6.05;;;;;;;;;;5063517;28;20095;-60
2021/06/09 14:35:12;;;;;;;8.07;6.32;;;;;;;;;;5039663;28;20039;-60
2021/06/09 14:37:41;;;;;;;7.57;6.38;;;;;;;;;;5054083;28;20489;-60